createdAt,value
2022-10-17T00:00:12.409Z,6.50
2022-10-17T00:02:42.252Z,6.17
2022-10-17T00:05:12.195Z,6.83
2022-10-17T00:07:41.994Z,7.27
2022-10-17T00:10:11.556Z,6.40
2022-10-17T00:12:41.730Z,7.17
2022-10-17T00:15:14.616Z,7.00
2022-10-17T00:17:44.417Z,7.53
2022-10-17T00:20:14.870Z,7.20
2022-10-17T00:22:44.701Z,8.20
2022-10-17T00:25:14.748Z,7.70
2022-10-17T00:27:44.609Z,6.87
2022-10-17T00:30:17.737Z,7.30
2022-10-17T00:32:47.900Z,7.77
2022-10-17T00:35:17.540Z,7.23
2022-10-17T00:37:47.692Z,7.22
2022-10-17T00:40:17.361Z,6.60
2022-10-17T00:42:50.272Z,6.50
2022-10-17T00:45:23.631Z,6.60
2022-10-17T00:48:03.587Z,7.13
2022-10-17T00:50:35.307Z,6.35
2022-10-17T00:53:08.888Z,6.37
2022-10-17T00:55:41.797Z,7.93
2022-10-17T00:58:11.803Z,6.60
2022-10-17T01:00:43.935Z,5.93
2022-10-17T01:03:13.594Z,6.80
2022-10-17T01:05:44.516Z,6.33
2022-10-17T01:08:14.966Z,6.17
2022-10-17T01:10:50.428Z,7.10
2022-10-17T01:13:26.076Z,6.50
2022-10-17T01:16:13.879Z,6.20
2022-10-17T01:19:03.276Z,6.03
2022-10-17T01:22:02.287Z,6.95
2022-10-17T01:24:54.902Z,6.10
2022-10-17T01:27:33.718Z,6.25
2022-10-17T01:30:43.260Z,6.93
2022-10-17T01:33:16.395Z,6.83
2022-10-17T01:35:53.635Z,6.73
2022-10-17T01:38:52.355Z,6.13
2022-10-17T01:41:31.586Z,6.63
2022-10-17T01:44:04.877Z,7.37
2022-10-17T01:46:40.032Z,7.13
2022-10-17T01:49:14.051Z,7.57
2022-10-17T01:51:46.973Z,7.30
2022-10-17T01:54:43.555Z,7.50
2022-10-17T01:57:16.524Z,8.57
2022-10-17T01:59:49.687Z,7.43
2022-10-17T02:02:21.876Z,8.17
2022-10-17T02:04:53.366Z,10.27
2022-10-17T02:07:22.921Z,9.13
2022-10-17T02:09:52.782Z,8.27
2022-10-17T02:12:31.602Z,8.27
2022-10-17T02:15:19.967Z,7.70
2022-10-17T02:18:11.802Z,9.03
2022-10-17T02:20:56.777Z,7.45
2022-10-17T02:23:41.300Z,7.80
2022-10-17T02:26:13.845Z,6.97
2022-10-17T02:28:46.825Z,8.17
2022-10-17T02:31:25.409Z,8.13
2022-10-17T02:34:01.707Z,7.47
2022-10-17T02:36:37.226Z,7.40
2022-10-17T02:39:09.504Z,7.60
2022-10-17T02:41:41.315Z,7.78
2022-10-17T02:44:12.365Z,8.53
2022-10-17T02:46:45.123Z,7.60
2022-10-17T02:49:20.494Z,7.97
2022-10-17T02:52:05.454Z,7.53
2022-10-17T02:54:43.678Z,7.97
2022-10-17T02:57:35.044Z,7.53
2022-10-17T03:00:09.413Z,7.20
2022-10-17T03:02:51.186Z,7.27
2022-10-17T03:05:23.758Z,7.83
2022-10-17T03:07:54.490Z,7.87
2022-10-17T03:10:24.739Z,8.00
2022-10-17T03:12:54.418Z,8.60
2022-10-17T03:15:23.972Z,8.00
2022-10-17T03:17:53.762Z,8.00
2022-10-17T03:20:24.720Z,7.55
2022-10-17T03:22:54.617Z,7.37
2022-10-17T03:25:24.808Z,7.28
2022-10-17T03:27:54.958Z,7.90
2022-10-17T03:30:24.904Z,7.78
2022-10-17T03:32:55.831Z,8.20
2022-10-17T03:35:26.551Z,6.83
2022-10-17T03:37:57.280Z,6.95
2022-10-17T03:40:27.837Z,7.60
2022-10-17T03:42:57.686Z,7.37
2022-10-17T03:45:27.776Z,6.95
2022-10-17T03:48:00.513Z,7.28
2022-10-17T03:50:30.301Z,6.00
2022-10-17T03:53:00.267Z,7.10
2022-10-17T03:55:31.246Z,6.67
2022-10-17T03:58:01.042Z,7.10
2022-10-17T04:00:31.010Z,7.43
2022-10-17T04:03:00.827Z,6.77
2022-10-17T04:05:30.678Z,7.20
2022-10-17T04:08:03.908Z,6.37
2022-10-17T04:10:33.885Z,6.77
2022-10-17T04:13:03.784Z,7.70
2022-10-17T04:15:33.623Z,7.27
2022-10-17T04:20:38.270Z,7.60
2022-10-17T04:23:07.770Z,6.97
2022-10-17T04:25:38.578Z,7.20
2022-10-17T04:28:08.694Z,7.23
2022-10-17T04:30:41.206Z,7.23
2022-10-17T04:33:10.871Z,6.90
2022-10-17T04:35:40.713Z,7.13
2022-10-17T04:38:10.472Z,7.97
2022-10-17T04:40:40.273Z,6.43
2022-10-17T04:43:10.725Z,7.60
2022-10-17T04:45:41.100Z,7.47
2022-10-17T04:48:10.579Z,7.33
2022-10-17T04:50:40.437Z,7.07
2022-10-17T04:53:12.049Z,6.78
2022-10-17T04:55:41.844Z,7.50
2022-10-17T04:58:11.632Z,7.00
2022-10-17T05:00:41.798Z,6.30
2022-10-17T05:03:16.509Z,7.37
2022-10-17T05:05:46.489Z,6.83
2022-10-17T05:08:16.463Z,6.00
2022-10-17T05:10:47.218Z,6.72
2022-10-17T05:13:17.962Z,7.33
2022-10-17T05:15:47.747Z,6.33
2022-10-17T05:18:17.990Z,6.87
2022-10-17T05:20:47.955Z,8.03
2022-10-17T05:23:17.785Z,8.03
2022-10-17T05:25:47.597Z,8.07
2022-10-17T05:28:17.679Z,7.43
2022-10-17T05:30:48.593Z,6.92
2022-10-17T05:33:18.722Z,6.85
2022-10-17T05:35:48.527Z,7.87
2022-10-17T05:38:18.486Z,7.05
2022-10-17T05:40:49.451Z,7.17
2022-10-17T05:43:19.179Z,7.27
2022-10-17T05:45:49.289Z,7.87
2022-10-17T05:48:21.202Z,6.03
2022-10-17T05:50:51.274Z,6.73
2022-10-17T05:53:22.838Z,7.43
2022-10-17T05:56:01.110Z,6.77
2022-10-17T05:58:51.817Z,8.30
2022-10-17T06:01:10.714Z,7.93
2022-10-17T06:03:39.967Z,7.83
2022-10-17T06:06:12.948Z,7.67
2022-10-17T06:08:45.560Z,8.43
2022-10-17T06:11:17.084Z,9.63
2022-10-17T06:13:47.967Z,8.60
2022-10-17T06:16:19.387Z,8.73
2022-10-17T06:21:22.575Z,8.95
2022-10-17T06:23:54.343Z,9.23
2022-10-17T06:26:28.784Z,10.00
2022-10-17T06:28:58.767Z,9.10
2022-10-17T06:31:30.529Z,8.47
2022-10-17T06:34:00.614Z,8.37
2022-10-17T06:36:31.351Z,9.70
2022-10-17T06:39:01.372Z,10.67
2022-10-17T06:41:32.889Z,10.67
2022-10-17T06:44:06.108Z,10.43
2022-10-17T06:46:41.185Z,10.50
2022-10-17T06:49:12.103Z,10.93
2022-10-17T06:51:56.594Z,12.37
2022-10-17T06:54:28.203Z,13.13
2022-10-17T06:57:11.877Z,12.13
2022-10-17T06:59:55.484Z,11.73
2022-10-17T07:02:27.299Z,12.07
2022-10-17T07:04:59.339Z,13.03
2022-10-17T07:07:32.591Z,12.68
2022-10-17T07:10:03.856Z,12.50
2022-10-17T07:12:35.179Z,12.43
2022-10-17T07:15:05.979Z,11.65
2022-10-17T07:17:36.371Z,12.70
2022-10-17T07:20:07.304Z,12.10
2022-10-17T07:22:39.192Z,11.40
2022-10-17T07:25:10.252Z,10.30
2022-10-17T07:27:41.852Z,11.50
2022-10-17T07:30:12.704Z,10.80
2022-10-17T07:32:44.744Z,10.00
2022-10-17T07:35:15.689Z,9.88
2022-10-17T07:37:45.506Z,10.25
2022-10-17T07:40:16.626Z,9.83
2022-10-17T07:42:46.725Z,10.77
2022-10-17T07:45:16.520Z,10.47
2022-10-17T07:47:46.593Z,9.33
2022-10-17T07:50:17.910Z,9.33
2022-10-17T07:52:47.690Z,9.37
2022-10-17T07:55:17.360Z,8.97
2022-10-17T07:57:47.613Z,9.83
2022-10-17T08:00:17.462Z,7.83
2022-10-17T08:02:47.249Z,9.37
2022-10-17T08:05:17.058Z,9.23
2022-10-17T08:07:47.012Z,8.50
2022-10-17T08:10:17.702Z,8.97
2022-10-17T08:12:47.394Z,9.30
2022-10-17T08:15:16.992Z,8.83
2022-10-17T08:17:47.138Z,7.97
2022-10-17T08:20:17.227Z,8.58
2022-10-17T08:22:54.244Z,7.63
2022-10-17T08:25:24.995Z,8.23
2022-10-17T08:27:54.980Z,7.53
2022-10-17T08:30:24.745Z,7.90
2022-10-17T08:32:56.105Z,7.97
2022-10-17T08:35:25.637Z,7.30
2022-10-17T08:37:55.467Z,7.23
2022-10-17T08:40:28.948Z,6.93
2022-10-17T08:43:16.733Z,6.45
2022-10-17T08:46:00.342Z,7.03
2022-10-17T08:48:34.959Z,7.37
2022-10-17T08:51:11.892Z,7.62
2022-10-17T08:53:47.680Z,7.20
2022-10-17T08:56:44.013Z,7.17
2022-10-17T08:58:58.846Z,7.43
2022-10-17T09:01:40.381Z,5.53
2022-10-17T09:06:58.325Z,6.12
2022-10-17T09:09:48.453Z,5.85
2022-10-17T09:12:27.003Z,5.60
2022-10-17T09:15:05.889Z,6.40
2022-10-17T09:17:48.626Z,5.53
2022-10-17T09:20:27.370Z,6.03
2022-10-17T09:23:00.193Z,5.23
2022-10-17T09:25:31.930Z,6.20
2022-10-17T09:28:19.866Z,5.13
2022-10-17T09:30:55.214Z,5.60
2022-10-17T09:33:53.915Z,5.90
2022-10-17T09:36:19.725Z,5.95
2022-10-17T09:38:55.827Z,4.75
2022-10-17T09:41:46.617Z,5.67
2022-10-17T09:44:21.982Z,5.27
2022-10-17T09:47:03.577Z,5.13
2022-10-17T09:49:36.575Z,5.10
2022-10-17T09:52:09.712Z,5.50
2022-10-17T09:54:49.063Z,5.40
2022-10-17T09:57:21.080Z,4.65
2022-10-17T10:00:06.341Z,4.67
2022-10-17T10:02:39.584Z,5.20
2022-10-17T10:05:21.668Z,5.27
2022-10-17T10:08:16.298Z,4.30
2022-10-17T10:10:46.765Z,4.13
2022-10-17T10:13:20.615Z,5.00
2022-10-17T10:15:51.758Z,4.67
2022-10-17T10:18:33.513Z,4.93
2022-10-17T10:21:17.828Z,4.37
2022-10-17T10:24:09.245Z,4.60
2022-10-17T10:26:50.806Z,4.90
2022-10-17T10:29:32.530Z,4.63
2022-10-17T10:32:26.753Z,5.23
2022-10-17T10:35:11.207Z,5.35
2022-10-17T10:37:47.513Z,4.73
2022-10-17T10:40:25.871Z,4.53
2022-10-17T10:43:04.003Z,4.20
2022-10-17T10:45:49.122Z,4.60
2022-10-17T10:48:27.249Z,3.83
2022-10-17T10:51:00.107Z,4.03
2022-10-17T10:53:41.925Z,4.20
2022-10-17T10:56:17.695Z,5.03
2022-10-17T10:59:11.140Z,4.27
2022-10-17T11:01:52.935Z,4.23
2022-10-17T11:04:31.130Z,4.93
2022-10-17T11:07:03.963Z,3.73
2022-10-17T11:09:49.261Z,4.80
2022-10-17T11:12:27.910Z,4.78
2022-10-17T11:15:20.734Z,4.10
2022-10-17T11:17:54.048Z,5.40
2022-10-17T11:20:42.654Z,4.00
2022-10-17T11:23:19.861Z,4.07
2022-10-17T11:25:54.791Z,4.07
2022-10-17T11:28:26.767Z,4.00
2022-10-17T11:31:08.484Z,4.37
2022-10-17T11:33:53.266Z,4.30
2022-10-17T11:36:28.625Z,3.80
2022-10-17T11:39:01.897Z,4.13
2022-10-17T11:41:55.601Z,3.37
2022-10-17T11:44:37.172Z,3.80
2022-10-17T11:47:25.069Z,4.10
2022-10-17T11:49:58.522Z,3.73
2022-10-17T11:52:56.990Z,3.63
2022-10-17T11:55:20.878Z,3.70
2022-10-17T11:58:15.075Z,3.53
2022-10-17T12:01:10.411Z,4.30
2022-10-17T12:04:15.078Z,3.80
2022-10-17T12:07:07.323Z,4.43
2022-10-17T12:09:46.094Z,4.03
2022-10-17T12:12:27.713Z,4.20
2022-10-17T12:15:24.672Z,3.80
2022-10-17T12:18:05.250Z,3.80
2022-10-17T12:20:39.570Z,3.87
2022-10-17T12:23:15.067Z,4.23
2022-10-17T12:26:01.127Z,3.77
2022-10-17T12:28:34.818Z,3.23
2022-10-17T12:31:12.999Z,3.85
2022-10-17T12:33:51.629Z,3.65
2022-10-17T12:36:29.872Z,3.23
2022-10-17T12:39:10.144Z,3.80
2022-10-17T12:41:44.351Z,3.80
2022-10-17T12:44:23.040Z,3.45
2022-10-17T12:47:09.646Z,3.70
2022-10-17T12:49:42.734Z,3.63
2022-10-17T12:52:36.725Z,3.60
2022-10-17T12:55:12.969Z,4.23
2022-10-17T12:57:46.002Z,3.50
2022-10-17T13:00:30.690Z,4.43
2022-10-17T13:03:03.530Z,4.03
2022-10-17T13:05:36.035Z,3.73
2022-10-17T13:08:10.040Z,3.75
2022-10-17T13:10:43.237Z,4.15
2022-10-17T13:13:20.833Z,3.80
2022-10-17T13:15:52.881Z,4.05
2022-10-17T13:18:25.506Z,2.93
2022-10-17T13:21:07.167Z,4.43
2022-10-17T13:23:38.705Z,3.65
2022-10-17T13:26:22.987Z,3.70
2022-10-17T13:29:05.196Z,3.43
2022-10-17T13:31:38.171Z,3.40
2022-10-17T13:34:19.414Z,3.90
2022-10-17T13:36:57.324Z,3.07
2022-10-17T13:39:44.916Z,2.93
2022-10-17T13:42:02.884Z,3.17
2022-10-17T13:44:39.392Z,3.43
2022-10-17T13:47:10.060Z,3.25
2022-10-17T13:49:43.060Z,3.70
2022-10-17T13:52:18.422Z,3.77
2022-10-17T13:54:55.207Z,3.10
2022-10-17T13:57:30.826Z,3.57
2022-10-17T14:00:11.422Z,2.83
2022-10-17T14:02:42.893Z,3.73
2022-10-17T14:05:19.687Z,3.80
2022-10-17T14:08:22.829Z,3.53
2022-10-17T14:10:36.989Z,3.53
2022-10-17T14:13:09.590Z,3.40
2022-10-17T14:15:41.062Z,3.60
2022-10-17T14:18:13.915Z,2.83
2022-10-17T14:21:29.120Z,3.50
2022-10-17T14:23:36.776Z,3.00
2022-10-17T14:26:10.179Z,2.77
2022-10-17T14:28:41.764Z,2.97
2022-10-17T14:31:26.023Z,2.50
2022-10-17T14:33:56.460Z,3.50
2022-10-17T14:36:41.792Z,3.07
2022-10-17T14:39:14.687Z,3.27
2022-10-17T14:41:46.737Z,3.40
2022-10-17T14:44:24.758Z,2.87
2022-10-17T14:46:57.747Z,3.40
2022-10-17T14:49:36.475Z,2.73
2022-10-17T14:52:19.248Z,3.67
2022-10-17T14:54:50.587Z,3.08
2022-10-17T14:59:54.305Z,3.10
2022-10-17T15:02:22.577Z,3.20
2022-10-17T15:04:52.932Z,3.93
2022-10-17T15:07:24.163Z,3.30
2022-10-17T15:09:54.816Z,3.77
2022-10-17T15:12:26.810Z,3.90
2022-10-17T15:14:56.729Z,2.90
2022-10-17T15:17:29.817Z,3.00
2022-10-17T15:20:00.345Z,2.87
2022-10-17T15:22:31.731Z,2.43
2022-10-17T15:25:01.831Z,2.63
2022-10-17T15:27:32.836Z,2.90
2022-10-17T15:30:02.954Z,3.20
2022-10-17T15:32:33.020Z,2.80
2022-10-17T15:35:02.785Z,3.10
2022-10-17T15:37:34.830Z,3.47
2022-10-17T15:40:06.075Z,2.63
2022-10-17T15:42:35.875Z,3.17
2022-10-17T15:47:39.318Z,3.43
2022-10-17T15:50:11.142Z,3.60
2022-10-17T15:52:41.490Z,3.07
2022-10-17T15:55:12.109Z,3.60
2022-10-17T15:57:47.043Z,3.50
2022-10-17T16:00:22.922Z,2.75
2022-10-17T16:02:53.011Z,3.07
2022-10-17T16:05:29.324Z,3.20
2022-10-17T16:07:59.153Z,3.87
2022-10-17T16:10:29.133Z,2.63
2022-10-17T16:12:58.955Z,3.17
2022-10-17T16:15:29.559Z,2.80
2022-10-17T16:18:01.768Z,3.25
2022-10-17T16:20:32.059Z,3.15
2022-10-17T16:23:04.155Z,3.27
2022-10-17T16:25:34.220Z,3.43
2022-10-17T16:28:04.444Z,3.50
2022-10-17T16:30:36.115Z,3.60
2022-10-17T16:33:06.604Z,3.30
2022-10-17T16:35:37.647Z,4.13
2022-10-17T16:38:08.538Z,3.37
2022-10-17T16:40:40.226Z,3.52
2022-10-17T16:43:14.406Z,4.07
2022-10-17T16:45:44.215Z,3.60
2022-10-17T16:48:13.810Z,4.10
2022-10-17T16:50:43.583Z,4.00
2022-10-17T16:53:13.393Z,3.25
2022-10-17T16:55:43.731Z,2.77
2022-10-17T16:58:13.239Z,3.08
2022-10-17T17:00:44.058Z,3.53
2022-10-17T17:05:42.249Z,3.37
2022-10-17T17:08:12.686Z,3.80
2022-10-17T17:10:47.556Z,3.42
2022-10-17T17:13:18.354Z,3.87
2022-10-17T17:15:51.046Z,4.05
2022-10-17T17:18:22.371Z,4.67
2022-10-17T17:20:51.882Z,5.00
2022-10-17T17:23:21.369Z,4.67
2022-10-17T17:25:52.682Z,4.30
2022-10-17T17:28:22.575Z,5.63
2022-10-17T17:30:52.854Z,5.33
2022-10-17T17:33:23.961Z,5.50
2022-10-17T17:35:59.933Z,4.70
2022-10-17T17:38:32.189Z,5.17
2022-10-17T17:41:02.434Z,5.27
2022-10-17T17:43:32.527Z,5.62
2022-10-17T17:46:03.945Z,5.37
2022-10-17T17:48:33.797Z,5.97
2022-10-17T17:51:08.550Z,5.23
2022-10-17T17:53:40.181Z,3.90
2022-10-17T17:56:14.221Z,3.97
2022-10-17T17:58:48.671Z,3.27
2022-10-17T18:01:22.385Z,3.92
2022-10-17T18:03:54.230Z,4.22
2022-10-17T18:06:24.253Z,4.60
2022-10-17T18:08:57.312Z,3.87
2022-10-17T18:11:28.227Z,4.83
2022-10-17T18:16:30.053Z,4.20
2022-10-17T18:19:04.145Z,4.43
2022-10-17T18:21:32.835Z,3.87
2022-10-17T18:24:04.807Z,4.20
2022-10-17T18:26:36.662Z,4.13
2022-10-17T18:29:06.658Z,4.73
2022-10-17T18:31:36.514Z,3.77
2022-10-17T18:34:07.407Z,4.42
2022-10-17T18:36:37.826Z,4.03
2022-10-17T18:39:07.486Z,5.03
2022-10-17T18:41:37.373Z,4.10
2022-10-17T18:44:08.341Z,3.73
2022-10-17T18:46:39.793Z,4.47
2022-10-17T18:49:19.699Z,4.47
2022-10-17T18:51:56.824Z,4.93
2022-10-17T18:54:32.588Z,4.10
2022-10-17T18:57:02.865Z,3.75
2022-10-17T18:59:41.723Z,4.20
2022-10-17T19:02:15.386Z,4.07
2022-10-17T19:04:54.907Z,5.33
2022-10-17T19:07:25.622Z,3.22
2022-10-17T19:10:15.325Z,5.00
2022-10-17T19:12:45.042Z,4.87
2022-10-17T19:15:15.498Z,3.87
2022-10-17T19:17:45.304Z,5.20
2022-10-17T19:20:22.018Z,4.23
2022-10-17T19:25:26.295Z,4.15
2022-10-17T19:27:59.691Z,4.57
2022-10-17T19:30:31.807Z,4.50
2022-10-17T19:33:10.559Z,4.65
2022-10-17T19:36:10.183Z,5.10
2022-10-17T19:38:49.855Z,5.80
2022-10-17T19:41:23.354Z,5.70
2022-10-17T19:43:58.152Z,5.80
2022-10-17T19:56:03.865Z,5.12
2022-10-17T19:56:42.940Z,5.03
2022-10-17T19:58:37.354Z,5.13
2022-10-17T20:01:08.576Z,5.20
2022-10-17T20:03:40.010Z,5.00
2022-10-17T20:08:40.217Z,5.20
2022-10-17T20:11:15.988Z,4.85
2022-10-17T20:13:50.039Z,4.77
2022-10-17T20:16:23.787Z,5.20
2022-10-17T20:18:57.842Z,4.67
2022-10-17T20:21:35.223Z,5.15
2022-10-17T20:24:08.430Z,5.20
2022-10-17T20:26:39.905Z,3.80
2022-10-17T20:29:18.545Z,4.75
2022-10-17T20:31:51.022Z,4.42
2022-10-17T20:34:20.814Z,5.30
2022-10-17T20:36:52.669Z,5.97
2022-10-17T20:39:22.589Z,4.97
2022-10-17T20:41:52.797Z,6.33
2022-10-17T20:44:30.183Z,5.12
2022-10-17T20:47:02.699Z,4.97
2022-10-17T20:49:32.993Z,5.40
2022-10-17T20:52:03.711Z,4.80
2022-10-17T21:04:44.018Z,3.27
2022-10-17T21:06:41.041Z,3.47
2022-10-17T21:09:10.654Z,3.33
2022-10-17T21:11:43.202Z,3.43
2022-10-17T21:14:15.301Z,2.57
2022-10-17T21:16:45.182Z,3.37
2022-10-17T21:19:15.970Z,3.02
2022-10-17T21:24:21.094Z,3.20
2022-10-17T21:26:53.681Z,3.30
2022-10-17T21:29:25.626Z,3.80
2022-10-17T21:31:55.580Z,3.27
2022-10-17T21:34:25.717Z,3.58
2022-10-17T21:36:55.569Z,3.77
2022-10-17T21:39:25.503Z,3.60
2022-10-17T21:41:55.965Z,3.02
2022-10-17T21:44:27.786Z,2.93
2022-10-17T21:46:57.741Z,3.77
2022-10-17T21:49:27.700Z,2.33
2022-10-17T21:51:58.334Z,2.73
2022-10-17T21:54:27.999Z,2.90
2022-10-17T21:56:58.284Z,2.70
2022-10-17T21:59:28.259Z,3.07
2022-10-17T22:01:58.137Z,2.50
2022-10-17T22:04:28.063Z,2.63
2022-10-17T22:06:57.848Z,2.70
2022-10-17T22:09:28.288Z,2.60
2022-10-17T22:11:58.252Z,2.67
2022-10-17T22:14:29.165Z,2.60
2022-10-17T22:16:59.064Z,2.40
2022-10-17T22:19:28.853Z,2.60
2022-10-17T22:21:58.646Z,2.70
2022-10-17T22:24:28.465Z,2.23
2022-10-17T22:26:58.613Z,2.47
2022-10-17T22:29:28.393Z,2.20
2022-10-17T22:31:58.179Z,2.67
2022-10-17T22:34:28.130Z,2.22
2022-10-17T22:36:58.277Z,2.07
2022-10-17T22:39:28.060Z,2.43
2022-10-17T22:41:57.832Z,2.47
2022-10-17T22:44:27.617Z,2.10
2022-10-17T22:46:57.352Z,2.60
2022-10-17T22:49:27.150Z,2.03
2022-10-17T22:51:56.921Z,2.57
2022-10-17T22:54:26.768Z,1.90
2022-10-17T22:56:56.455Z,1.93
2022-10-17T22:59:26.238Z,2.83
2022-10-17T23:01:56.092Z,2.47
2022-10-17T23:04:25.944Z,2.63
2022-10-17T23:06:55.732Z,2.23
2022-10-17T23:11:55.491Z,2.07
2022-10-17T23:14:25.357Z,2.30
2022-10-17T23:16:55.148Z,3.13
2022-10-17T23:19:24.693Z,2.47
2022-10-17T23:21:54.514Z,2.50
2022-10-17T23:24:24.132Z,2.23
2022-10-17T23:26:53.974Z,2.70
2022-10-17T23:29:24.671Z,2.40
2022-10-17T23:31:57.176Z,2.40
2022-10-17T23:34:27.039Z,2.23
2022-10-17T23:36:57.579Z,2.37
2022-10-17T23:39:27.541Z,2.60
2022-10-17T23:41:57.318Z,2.47
2022-10-17T23:44:27.112Z,2.83
2022-10-17T23:46:56.998Z,3.00
2022-10-17T23:49:27.964Z,2.87
2022-10-17T23:51:58.127Z,2.15
2022-10-17T23:54:28.208Z,2.17
2022-10-17T23:56:58.096Z,2.73
2022-10-17T23:59:27.951Z,3.13
